createdAt,value
2018-04-30T00:01:13.668Z,3.10
2018-04-30T00:03:41.278Z,3.10
2018-04-30T00:06:08.865Z,3.00
2018-04-30T00:08:36.453Z,3.00
2018-04-30T00:11:04.046Z,2.90
2018-04-30T00:13:31.658Z,3.00
2018-04-30T00:15:59.220Z,3.00
2018-04-30T00:18:26.776Z,2.70
2018-04-30T00:20:54.328Z,2.80
2018-04-30T00:23:23.390Z,2.80
2018-04-30T00:25:50.968Z,2.70
2018-04-30T00:28:18.536Z,2.70
2018-04-30T00:30:46.089Z,2.70
2018-04-30T00:33:13.640Z,2.60
2018-04-30T00:35:41.193Z,2.60
2018-04-30T00:38:08.764Z,2.60
2018-04-30T00:40:36.308Z,2.60
2018-04-30T00:43:03.861Z,2.50
2018-04-30T00:45:31.848Z,2.50
2018-04-30T00:47:59.401Z,2.50
2018-04-30T00:50:27.018Z,2.50
2018-04-30T00:52:54.674Z,2.40
2018-04-30T00:55:22.216Z,2.40
2018-04-30T00:57:50.537Z,2.40
2018-04-30T01:00:18.084Z,2.40
2018-04-30T01:02:45.676Z,2.40
2018-04-30T01:05:13.224Z,2.30
2018-04-30T01:07:40.791Z,2.30
2018-04-30T01:10:09.122Z,2.20
2018-04-30T01:12:36.707Z,2.20
2018-04-30T01:15:04.261Z,2.20
2018-04-30T01:17:31.832Z,2.20
2018-04-30T01:19:59.386Z,2.20
2018-04-30T01:22:26.936Z,2.20
2018-04-30T01:24:54.485Z,2.10
2018-04-30T01:27:22.038Z,2.10
2018-04-30T01:29:49.625Z,2.10
2018-04-30T01:32:17.185Z,2.00
2018-04-30T01:34:44.741Z,2.00
2018-04-30T01:37:12.297Z,2.00
2018-04-30T01:39:39.858Z,1.90
2018-04-30T01:42:07.437Z,1.90
2018-04-30T01:44:34.993Z,1.80
2018-04-30T01:47:03.318Z,1.90
2018-04-30T01:49:31.841Z,1.90
2018-04-30T01:51:59.396Z,1.80
2018-04-30T01:54:26.988Z,1.80
2018-04-30T01:56:54.544Z,1.90
2018-04-30T01:59:22.103Z,1.80
2018-04-30T02:01:49.663Z,1.80
2018-04-30T02:04:17.224Z,1.70
2018-04-30T02:06:44.797Z,1.60
2018-04-30T02:09:12.344Z,1.60
2018-04-30T02:11:39.916Z,1.60
2018-04-30T02:14:07.464Z,1.70
2018-04-30T02:16:35.019Z,1.70
2018-04-30T02:19:02.596Z,1.60
2018-04-30T02:21:30.145Z,1.60
2018-04-30T02:23:57.698Z,1.60
2018-04-30T02:26:25.244Z,1.50
2018-04-30T02:28:52.796Z,1.40
2018-04-30T02:31:20.374Z,1.40
2018-04-30T02:33:47.928Z,1.30
2018-04-30T02:36:15.503Z,1.30
2018-04-30T02:38:43.063Z,1.10
2018-04-30T02:41:10.620Z,1.10
2018-04-30T02:43:38.198Z,1.00
2018-04-30T02:46:05.772Z,1.10
2018-04-30T02:48:34.092Z,1.20
2018-04-30T02:51:01.749Z,1.10
2018-04-30T02:53:29.261Z,1.20
2018-04-30T02:55:56.844Z,1.20
2018-04-30T02:58:24.408Z,1.10
2018-04-30T03:00:51.990Z,1.10
2018-04-30T03:03:19.544Z,1.10
2018-04-30T03:05:47.101Z,1.10
2018-04-30T03:08:14.680Z,1.10
2018-04-30T03:10:42.239Z,1.10
2018-04-30T03:13:09.795Z,1.20
2018-04-30T03:15:37.372Z,1.20
2018-04-30T03:18:04.931Z,1.10
2018-04-30T03:20:32.661Z,1.10
2018-04-30T03:23:00.208Z,1.10
2018-04-30T03:25:27.768Z,1.10
2018-04-30T03:27:55.328Z,1.10
2018-04-30T03:30:22.888Z,1.10
2018-04-30T03:32:50.444Z,1.10
2018-04-30T03:35:18.001Z,1.10
2018-04-30T03:37:45.561Z,1.20
2018-04-30T03:40:13.116Z,1.10
2018-04-30T03:42:40.692Z,1.20
2018-04-30T03:45:08.244Z,1.20
2018-04-30T03:47:35.792Z,1.20
2018-04-30T03:50:03.359Z,1.30
2018-04-30T03:52:30.967Z,1.30
2018-04-30T03:54:59.304Z,1.20
2018-04-30T03:57:26.860Z,1.20
2018-04-30T03:59:54.415Z,1.20
2018-04-30T04:02:33.688Z,1.40
2018-04-30T04:05:12.853Z,1.40
2018-04-30T04:07:40.433Z,1.30
2018-04-30T04:10:07.987Z,1.40
2018-04-30T04:12:35.548Z,1.40
2018-04-30T04:15:03.104Z,1.50
2018-04-30T04:17:30.709Z,1.60
2018-04-30T04:19:58.296Z,1.70
2018-04-30T04:22:25.849Z,1.80
2018-04-30T04:24:53.398Z,1.90
2018-04-30T04:27:21.721Z,1.90
2018-04-30T04:29:49.276Z,1.90
2018-04-30T04:32:16.872Z,2.00
2018-04-30T04:34:44.425Z,2.10
2018-04-30T04:37:11.980Z,2.20
2018-04-30T04:39:40.301Z,2.40
2018-04-30T04:42:07.855Z,2.40
2018-04-30T04:44:35.429Z,2.60
2018-04-30T04:47:03.000Z,2.70
2018-04-30T04:49:30.572Z,3.00
2018-04-30T04:51:58.125Z,3.20
2018-04-30T04:54:25.667Z,3.40
2018-04-30T04:56:53.243Z,3.60
2018-04-30T04:59:20.788Z,3.60
2018-04-30T05:01:48.341Z,3.70
2018-04-30T05:04:15.899Z,3.90
2018-04-30T05:06:43.457Z,4.10
2018-04-30T05:09:11.036Z,4.40
2018-04-30T05:11:38.580Z,4.70
2018-04-30T05:14:06.130Z,5.00
2018-04-30T05:16:33.680Z,5.30
2018-04-30T05:19:01.336Z,5.70
2018-04-30T05:21:28.912Z,6.00
2018-04-30T05:23:56.464Z,6.00
2018-04-30T05:26:24.012Z,6.00
2018-04-30T05:28:51.560Z,6.10
2018-04-30T05:31:19.108Z,6.10
2018-04-30T05:33:46.711Z,6.30
2018-04-30T05:36:14.277Z,6.40
2018-04-30T05:38:41.830Z,6.40
2018-04-30T05:41:09.388Z,6.50
2018-04-30T05:43:36.950Z,6.60
2018-04-30T05:46:04.530Z,6.60
2018-04-30T05:48:32.660Z,6.70
2018-04-30T05:51:00.216Z,6.80
2018-04-30T05:53:27.864Z,6.90
2018-04-30T05:55:55.413Z,7.10
2018-04-30T05:58:22.980Z,7.30
2018-04-30T06:00:50.532Z,7.30
2018-04-30T06:03:18.080Z,7.50
2018-04-30T06:05:45.637Z,7.70
2018-04-30T06:08:13.208Z,8.00
2018-04-30T06:10:40.800Z,8.30
2018-04-30T06:13:08.348Z,8.80
2018-04-30T06:15:35.909Z,9.50
2018-04-30T06:18:03.464Z,10.00
2018-04-30T06:20:31.560Z,10.20
2018-04-30T06:22:59.960Z,10.50
2018-04-30T06:25:28.277Z,11.00
2018-04-30T06:27:55.832Z,11.00
2018-04-30T06:30:23.380Z,10.90
2018-04-30T06:32:50.928Z,11.00
2018-04-30T06:35:18.505Z,11.00
2018-04-30T06:37:46.076Z,11.30
2018-04-30T06:40:13.656Z,11.80
2018-04-30T06:42:41.208Z,12.30
2018-04-30T06:45:08.760Z,12.40
2018-04-30T06:47:36.380Z,12.40
2018-04-30T06:50:04.678Z,12.60
2018-04-30T06:52:32.976Z,12.50
2018-04-30T06:55:00.528Z,12.10
2018-04-30T06:57:28.088Z,12.90
2018-04-30T06:59:55.668Z,13.10
2018-04-30T07:02:23.247Z,13.60
2018-04-30T07:04:51.568Z,14.10
2018-04-30T07:07:19.129Z,14.10
2018-04-30T07:09:46.760Z,13.80
2018-04-30T07:12:14.336Z,13.70
2018-04-30T07:14:41.884Z,14.00
2018-04-30T07:17:09.436Z,13.80
2018-04-30T07:19:36.991Z,14.50
2018-04-30T07:22:05.444Z,13.90
2018-04-30T07:24:33.024Z,14.50
2018-04-30T07:27:00.573Z,14.10
2018-04-30T07:29:28.128Z,14.40
2018-04-30T07:31:55.688Z,14.90
2018-04-30T07:34:24.000Z,14.20
2018-04-30T07:36:51.583Z,14.20
2018-04-30T07:39:19.149Z,14.50
2018-04-30T07:41:46.713Z,14.40
2018-04-30T07:44:14.276Z,14.00
2018-04-30T07:46:41.836Z,13.40
2018-04-30T07:49:09.495Z,12.90
2018-04-30T07:51:36.999Z,12.40
2018-04-30T07:54:04.549Z,12.60
2018-04-30T07:56:32.118Z,13.00
2018-04-30T07:58:59.676Z,12.90
2018-04-30T08:01:27.256Z,12.30
2018-04-30T08:03:54.808Z,12.10
2018-04-30T08:06:22.367Z,12.00
2018-04-30T08:08:49.916Z,11.90
2018-04-30T08:11:17.476Z,12.10
2018-04-30T08:13:45.056Z,12.00
2018-04-30T08:16:12.607Z,11.90
2018-04-30T08:18:40.171Z,11.70
2018-04-30T08:21:07.729Z,11.50
2018-04-30T08:23:35.287Z,11.70
2018-04-30T08:26:02.860Z,11.70
2018-04-30T08:28:30.408Z,11.70
2018-04-30T08:30:57.964Z,11.60
2018-04-30T08:33:25.522Z,11.50
2018-04-30T08:35:53.080Z,11.60
2018-04-30T08:38:20.660Z,11.70
2018-04-30T08:40:48.984Z,11.00
2018-04-30T08:43:16.534Z,10.90
2018-04-30T08:45:44.094Z,10.90
2018-04-30T08:48:11.646Z,11.00
2018-04-30T08:50:39.224Z,11.00
2018-04-30T08:53:07.556Z,11.10
2018-04-30T08:55:35.121Z,11.10
2018-04-30T08:58:02.679Z,11.20
2018-04-30T09:00:30.259Z,11.20
2018-04-30T09:02:57.828Z,11.30
2018-04-30T09:05:25.388Z,11.20
2018-04-30T09:07:52.952Z,11.10
2018-04-30T09:10:20.504Z,11.00
2018-04-30T09:12:48.056Z,10.80
2018-04-30T09:15:15.624Z,10.60
2018-04-30T09:17:43.188Z,10.70
2018-04-30T09:20:10.744Z,10.80
2018-04-30T09:22:38.321Z,10.90
2018-04-30T09:25:05.882Z,10.90
2018-04-30T09:27:33.444Z,10.90
2018-04-30T09:30:00.996Z,10.90
2018-04-30T09:32:28.552Z,10.90
2018-04-30T09:34:56.189Z,11.00
2018-04-30T09:37:24.444Z,11.00
2018-04-30T09:39:52.000Z,11.00
2018-04-30T09:42:19.599Z,11.00
2018-04-30T09:44:47.201Z,11.10
2018-04-30T09:47:14.768Z,11.20
2018-04-30T09:49:42.352Z,11.30
2018-04-30T09:52:09.897Z,11.20
2018-04-30T09:54:37.449Z,11.20
2018-04-30T09:57:05.007Z,11.20
2018-04-30T09:59:32.561Z,11.20
2018-04-30T10:02:00.136Z,11.20
2018-04-30T10:04:27.691Z,11.20
2018-04-30T10:06:55.244Z,11.00
2018-04-30T10:09:22.804Z,11.00
2018-04-30T10:11:50.363Z,11.10
2018-04-30T10:14:17.933Z,11.10
2018-04-30T10:16:45.484Z,11.20
2018-04-30T10:19:13.036Z,11.40
2018-04-30T10:21:40.595Z,11.50
2018-04-30T10:24:08.146Z,11.40
2018-04-30T10:26:35.728Z,11.20
2018-04-30T10:29:03.311Z,11.10
2018-04-30T10:31:30.879Z,11.10
2018-04-30T10:33:58.436Z,11.10
2018-04-30T10:36:26.755Z,11.30
2018-04-30T10:38:54.339Z,11.30
2018-04-30T10:41:21.891Z,11.50
2018-04-30T10:43:49.440Z,11.50
2018-04-30T10:46:16.989Z,11.40
2018-04-30T10:48:44.541Z,11.40
2018-04-30T10:51:12.125Z,11.40
2018-04-30T10:53:39.687Z,11.40
2018-04-30T10:56:07.236Z,11.50
2018-04-30T10:58:34.784Z,11.30
2018-04-30T11:01:02.334Z,11.20
2018-04-30T11:03:29.916Z,11.20
2018-04-30T11:05:57.472Z,11.20
2018-04-30T11:08:25.024Z,11.20
2018-04-30T11:10:52.571Z,11.20
2018-04-30T11:13:20.123Z,11.40
2018-04-30T11:15:47.696Z,11.30
2018-04-30T11:18:15.251Z,11.20
2018-04-30T11:20:42.810Z,11.20
2018-04-30T11:23:10.372Z,11.40
2018-04-30T11:25:37.924Z,11.40
2018-04-30T11:28:05.508Z,11.60
2018-04-30T11:30:33.064Z,11.70
2018-04-30T11:33:00.616Z,11.70
2018-04-30T11:35:28.201Z,11.70
2018-04-30T11:37:56.527Z,11.60
2018-04-30T11:40:24.128Z,11.60
2018-04-30T11:42:51.700Z,11.50
2018-04-30T11:45:19.268Z,11.50
2018-04-30T11:47:46.855Z,11.60
2018-04-30T11:50:14.411Z,11.70
2018-04-30T11:52:42.028Z,11.40
2018-04-30T11:55:09.590Z,11.30
2018-04-30T11:57:37.168Z,11.20
2018-04-30T12:00:04.736Z,11.20
2018-04-30T12:02:32.317Z,11.50
2018-04-30T12:04:59.963Z,11.70
2018-04-30T12:07:27.488Z,11.60
2018-04-30T12:09:55.058Z,11.70
2018-04-30T12:12:22.619Z,11.70
2018-04-30T12:14:50.204Z,11.60
2018-04-30T12:17:18.760Z,11.50
2018-04-30T12:19:46.336Z,11.50
2018-04-30T12:22:13.961Z,11.20
2018-04-30T12:24:42.237Z,11.10
2018-04-30T12:27:09.820Z,11.10
2018-04-30T12:29:37.410Z,11.10
2018-04-30T12:32:04.972Z,11.10
2018-04-30T12:34:32.537Z,11.20
2018-04-30T12:37:00.879Z,11.70
2018-04-30T12:39:28.457Z,11.60
2018-04-30T12:41:56.051Z,11.60
2018-04-30T12:44:23.612Z,11.70
2018-04-30T12:46:51.935Z,11.70
2018-04-30T12:49:19.508Z,11.70
2018-04-30T12:51:47.068Z,11.60
2018-04-30T12:54:14.663Z,11.50
2018-04-30T12:56:42.986Z,11.70
2018-04-30T12:59:10.549Z,11.70
2018-04-30T13:01:38.110Z,11.90
2018-04-30T13:04:05.684Z,12.20
2018-04-30T13:06:33.276Z,12.30
2018-04-30T13:09:00.844Z,12.20
2018-04-30T13:11:28.416Z,12.10
2018-04-30T13:13:55.976Z,11.90
2018-04-30T13:16:23.528Z,12.00
2018-04-30T13:18:51.367Z,12.00
2018-04-30T13:21:19.685Z,12.20
2018-04-30T13:23:47.242Z,12.20
2018-04-30T13:26:14.798Z,12.30
2018-04-30T13:28:42.418Z,12.20
2018-04-30T13:31:09.952Z,12.10
2018-04-30T13:33:37.505Z,12.20
2018-04-30T13:36:05.055Z,12.30
2018-04-30T13:38:32.612Z,12.40
2018-04-30T13:41:00.159Z,12.20
2018-04-30T13:43:27.744Z,12.10
2018-04-30T13:45:55.315Z,12.20
2018-04-30T13:48:22.880Z,12.10
2018-04-30T13:50:50.428Z,12.20
2018-04-30T13:53:17.982Z,12.10
2018-04-30T13:55:45.564Z,12.10
2018-04-30T13:58:13.143Z,12.20
2018-04-30T14:00:40.716Z,12.00
2018-04-30T14:03:08.270Z,12.00
2018-04-30T14:05:35.824Z,11.90
2018-04-30T14:08:03.412Z,11.90
2018-04-30T14:10:30.968Z,12.10
2018-04-30T14:12:58.791Z,12.10
2018-04-30T14:15:26.340Z,12.20
2018-04-30T14:17:53.892Z,12.00
2018-04-30T14:20:21.477Z,12.00
2018-04-30T14:22:49.024Z,11.80
2018-04-30T14:25:16.584Z,11.80
2018-04-30T14:27:44.139Z,11.80
2018-04-30T14:30:11.707Z,11.70
2018-04-30T14:32:39.284Z,11.60
2018-04-30T14:35:06.836Z,11.40
2018-04-30T14:37:34.390Z,11.30
2018-04-30T14:40:01.949Z,11.30
2018-04-30T14:42:29.511Z,11.30
2018-04-30T14:44:57.100Z,11.20
2018-04-30T14:47:24.647Z,11.30
2018-04-30T14:49:52.199Z,11.20
2018-04-30T14:52:19.752Z,11.40
2018-04-30T14:54:47.303Z,11.70
2018-04-30T14:57:14.888Z,11.60
2018-04-30T14:59:42.448Z,11.70
2018-04-30T15:02:10.000Z,11.70
2018-04-30T15:04:37.554Z,11.50
2018-04-30T15:07:05.106Z,11.50
2018-04-30T15:09:32.680Z,11.50
2018-04-30T15:12:00.231Z,11.50
2018-04-30T15:14:27.797Z,11.50
2018-04-30T15:16:55.348Z,11.40
2018-04-30T15:19:23.885Z,11.50
2018-04-30T15:21:51.436Z,11.40
2018-04-30T15:24:18.989Z,11.50
2018-04-30T15:26:46.539Z,11.50
2018-04-30T15:29:14.092Z,11.40
2018-04-30T15:31:41.691Z,11.20
2018-04-30T15:34:09.284Z,11.30
2018-04-30T15:36:36.853Z,11.20
2018-04-30T15:39:05.180Z,11.00
2018-04-30T15:41:32.730Z,11.00
2018-04-30T15:44:00.275Z,10.80
2018-04-30T15:46:27.845Z,10.80
2018-04-30T15:48:55.600Z,10.50
2018-04-30T15:51:23.151Z,10.40
2018-04-30T15:53:50.708Z,10.20
2018-04-30T15:56:18.260Z,10.30
2018-04-30T15:58:45.832Z,10.40
2018-04-30T16:01:13.420Z,10.40
2018-04-30T16:03:40.968Z,10.40
2018-04-30T16:06:08.556Z,10.20
2018-04-30T16:08:36.110Z,10.00
2018-04-30T16:11:03.669Z,10.00
2018-04-30T16:13:31.227Z,9.90
2018-04-30T16:15:58.777Z,9.90
2018-04-30T16:18:26.323Z,9.90
2018-04-30T16:20:53.868Z,9.90
2018-04-30T16:23:21.422Z,9.80
2018-04-30T16:25:48.974Z,9.70
2018-04-30T16:28:16.727Z,9.70
2018-04-30T16:30:44.276Z,9.60
2018-04-30T16:33:11.828Z,9.60
2018-04-30T16:35:39.376Z,9.60
2018-04-30T16:38:06.926Z,9.50
2018-04-30T16:40:35.272Z,9.50
2018-04-30T16:43:02.820Z,9.50
2018-04-30T16:45:30.368Z,9.40
2018-04-30T16:47:57.912Z,9.40
2018-04-30T16:50:25.469Z,9.40
2018-04-30T16:52:53.028Z,9.30
2018-04-30T16:55:20.608Z,9.20
2018-04-30T16:57:48.160Z,9.20
2018-04-30T17:00:15.710Z,9.20
2018-04-30T17:02:43.271Z,9.00
2018-04-30T17:05:10.828Z,9.10
2018-04-30T17:07:39.940Z,9.00
2018-04-30T17:10:07.488Z,8.90
2018-04-30T17:12:35.040Z,8.90
2018-04-30T17:15:02.584Z,8.90
2018-04-30T17:17:31.405Z,9.00
2018-04-30T17:19:58.965Z,9.00
2018-04-30T17:22:26.508Z,8.90
2018-04-30T17:24:54.056Z,8.80
2018-04-30T17:27:21.602Z,8.80
2018-04-30T17:29:49.155Z,8.90
2018-04-30T17:32:16.731Z,8.90
2018-04-30T17:34:44.280Z,8.80
2018-04-30T17:37:11.833Z,8.80
2018-04-30T17:39:39.380Z,8.80
2018-04-30T17:42:06.924Z,8.60
2018-04-30T17:44:35.264Z,8.50
2018-04-30T17:47:02.812Z,8.50
2018-04-30T17:49:30.376Z,8.50
2018-04-30T17:51:57.928Z,8.40
2018-04-30T17:54:25.477Z,8.40
2018-04-30T17:56:53.060Z,8.40
2018-04-30T17:59:20.624Z,8.30
2018-04-30T18:01:48.172Z,8.30
2018-04-30T18:04:15.723Z,8.20
2018-04-30T18:06:43.292Z,8.10
2018-04-30T18:09:10.888Z,8.00
2018-04-30T18:11:38.444Z,8.00
2018-04-30T18:14:06.759Z,7.90
2018-04-30T18:16:34.306Z,7.90
2018-04-30T18:19:01.856Z,7.90
2018-04-30T18:21:29.428Z,7.80
2018-04-30T18:23:56.979Z,7.70
2018-04-30T18:26:24.526Z,7.70
2018-04-30T18:28:52.084Z,7.70
2018-04-30T18:31:19.636Z,7.60
2018-04-30T18:33:47.211Z,7.60
2018-04-30T18:36:14.785Z,7.60
2018-04-30T18:38:42.371Z,7.50
2018-04-30T18:41:09.900Z,7.50
2018-04-30T18:43:37.448Z,7.50
2018-04-30T18:46:05.017Z,7.50
2018-04-30T18:48:32.562Z,7.40
2018-04-30T18:51:00.119Z,7.40
2018-04-30T18:53:27.669Z,7.40
2018-04-30T18:55:55.220Z,7.30
2018-04-30T18:58:22.792Z,7.30
2018-04-30T19:00:50.332Z,7.30
2018-04-30T19:03:17.881Z,7.20
2018-04-30T19:05:45.428Z,7.20
2018-04-30T19:08:12.981Z,7.20
2018-04-30T19:10:41.312Z,7.10
2018-04-30T19:13:08.880Z,7.10
2018-04-30T19:15:36.428Z,7.10
2018-04-30T19:18:03.981Z,7.10
2018-04-30T19:20:31.527Z,7.00
2018-04-30T19:22:59.105Z,7.00
2018-04-30T19:25:26.661Z,7.00
2018-04-30T19:27:54.209Z,7.00
2018-04-30T19:30:21.761Z,6.90
2018-04-30T19:32:49.318Z,6.90
2018-04-30T19:35:16.883Z,6.90
2018-04-30T19:37:44.429Z,6.90
2018-04-30T19:40:11.998Z,6.90
2018-04-30T19:42:39.550Z,6.80
2018-04-30T19:45:07.096Z,6.80
2018-04-30T19:47:34.672Z,6.80
2018-04-30T19:50:02.221Z,6.80
2018-04-30T19:52:29.835Z,6.80
2018-04-30T19:54:57.360Z,6.80
2018-04-30T19:57:24.916Z,6.80
2018-04-30T19:59:52.471Z,6.80
2018-04-30T20:02:20.029Z,6.70
2018-04-30T20:04:47.580Z,6.80
2018-04-30T20:07:15.172Z,6.80
2018-04-30T20:09:42.721Z,6.80
2018-04-30T20:12:10.268Z,6.80
2018-04-30T20:14:37.820Z,6.80
2018-04-30T20:17:05.364Z,6.80
2018-04-30T20:19:32.932Z,6.80
2018-04-30T20:22:00.560Z,6.80
2018-04-30T20:24:28.112Z,6.80
2018-04-30T20:26:55.660Z,6.80
2018-04-30T20:29:23.208Z,6.90
2018-04-30T20:31:50.790Z,6.90
2018-04-30T20:34:18.336Z,6.90
2018-04-30T20:36:45.884Z,6.90
2018-04-30T20:39:13.434Z,6.90
2018-04-30T20:41:41.748Z,6.90
2018-04-30T20:44:09.302Z,6.90
2018-04-30T20:46:36.861Z,6.90
2018-04-30T20:49:04.441Z,6.90
2018-04-30T20:51:32.005Z,6.90
2018-04-30T20:53:59.563Z,6.90
2018-04-30T20:56:27.108Z,6.80
2018-04-30T20:58:54.673Z,6.90
2018-04-30T21:01:22.248Z,6.90
2018-04-30T21:03:49.803Z,6.90
2018-04-30T21:06:17.361Z,6.90
2018-04-30T21:08:56.786Z,6.90
2018-04-30T21:11:24.385Z,6.90
2018-04-30T21:13:51.932Z,6.90
2018-04-30T21:16:19.476Z,6.90
2018-04-30T21:18:47.036Z,6.90
2018-04-30T21:21:14.608Z,7.00
2018-04-30T21:23:42.160Z,7.00
2018-04-30T21:26:09.712Z,7.00
2018-04-30T21:28:37.270Z,6.90
2018-04-30T21:31:04.824Z,7.00
2018-04-30T21:33:32.391Z,7.00
2018-04-30T21:35:59.947Z,7.00
2018-04-30T21:38:27.506Z,7.10
2018-04-30T21:40:55.424Z,7.00
2018-04-30T21:43:22.968Z,7.10
2018-04-30T21:45:50.540Z,7.10
2018-04-30T21:48:18.080Z,7.20
2018-04-30T21:50:45.627Z,7.20
2018-04-30T21:53:13.963Z,7.20
2018-04-30T21:55:41.512Z,7.20
2018-04-30T21:58:09.064Z,7.20
2018-04-30T22:00:36.636Z,7.30
2018-04-30T22:03:04.180Z,7.30
2018-04-30T22:05:32.308Z,7.30
2018-04-30T22:07:59.869Z,7.30
2018-04-30T22:10:27.424Z,7.40
2018-04-30T22:12:55.768Z,7.40
2018-04-30T22:15:23.320Z,7.40
2018-04-30T22:17:50.868Z,7.40
2018-04-30T22:20:18.424Z,7.40
2018-04-30T22:22:45.968Z,7.40
2018-04-30T22:25:13.540Z,7.40
2018-04-30T22:27:41.097Z,7.40
2018-04-30T22:30:08.652Z,7.40
2018-04-30T22:32:36.204Z,7.40
2018-04-30T22:35:03.759Z,7.40
2018-04-30T22:37:31.376Z,7.30
2018-04-30T22:39:58.921Z,7.30
2018-04-30T22:42:26.476Z,7.10
2018-04-30T22:44:54.025Z,7.00
2018-04-30T22:47:21.579Z,6.90
2018-04-30T22:49:49.160Z,6.90
2018-04-30T22:52:17.473Z,6.70
2018-04-30T22:54:45.028Z,6.70
2018-04-30T22:57:12.580Z,6.70
2018-04-30T22:59:40.124Z,6.60
2018-04-30T23:02:07.704Z,6.60
2018-04-30T23:04:35.267Z,6.50
2018-04-30T23:07:02.848Z,6.50
2018-04-30T23:09:30.400Z,6.50
2018-04-30T23:11:58.014Z,6.50
2018-04-30T23:14:25.684Z,6.40
2018-04-30T23:16:53.228Z,6.40
2018-04-30T23:19:20.780Z,6.30
2018-04-30T23:21:49.097Z,6.30
2018-04-30T23:24:16.644Z,6.30
2018-04-30T23:26:44.220Z,6.40
2018-04-30T23:29:11.768Z,6.30
2018-04-30T23:31:39.338Z,6.30
2018-04-30T23:34:06.884Z,6.30
2018-04-30T23:36:35.170Z,6.30
2018-04-30T23:39:02.813Z,6.30
2018-04-30T23:41:30.371Z,6.30
2018-04-30T23:43:57.920Z,6.30
2018-04-30T23:46:25.468Z,6.30
2018-04-30T23:48:53.023Z,6.30
2018-04-30T23:51:20.608Z,6.30
2018-04-30T23:53:48.161Z,6.30
2018-04-30T23:56:15.708Z,6.30
2018-04-30T23:58:43.255Z,6.30
